Time;durP1;ratioP1;P1;durP2;ratioP2;P2;SDS_P1;SDS_P2;PMS_P1;PMS_P2;Temp;Humidity;BMP_temperature;BMP_pressure;BME280_temperature;BME280_humidity;BME280_pressure;Samples;Min_cycle;Max_cycle;Signal;HPM_P1;HPM_P2
2023/01/14 00:00:37;;;;;;;18.57;3.80;;;7.20;99.90;;;;;;5074638;28;20174;-50
2023/01/14 00:03:02;;;;;;;17.00;2.87;;;7.20;99.90;;;;;;5056458;28;20206;-49
2023/01/14 00:05:28;;;;;;;22.47;3.80;;;7.20;99.90;;;;;;5056401;28;20218;-51
2023/01/14 00:07:54;;;;;;;26.40;3.93;;;7.20;99.90;;;;;;5074311;28;20656;-49
2023/01/14 00:10:20;;;;;;;23.23;3.67;;;7.20;99.90;;;;;;5074313;28;20182;-49
2023/01/14 00:12:45;;;;;;;24.00;4.10;;;7.10;99.90;;;;;;5074648;28;20655;-51
2023/01/14 00:15:11;;;;;;;19.80;3.83;;;7.10;99.90;;;;;;5074461;28;20278;-49
2023/01/14 00:17:37;;;;;;;32.73;4.73;;;7.10;99.90;;;;;;5075983;28;20178;-49
2023/01/14 00:20:02;;;;;;;11.50;3.07;;;7.10;99.90;;;;;;5080167;28;20254;-50
2023/01/14 00:22:29;;;;;;;24.47;4.03;;;7.10;99.90;;;;;;5078386;28;20195;-51
2023/01/14 00:24:55;;;;;;;23.47;3.50;;;7.00;99.90;;;;;;5074144;28;20179;-49
2023/01/14 00:27:21;;;;;;;18.93;3.40;;;7.00;99.90;;;;;;5056511;28;20187;-51
2023/01/14 00:29:46;;;;;;;24.60;4.17;;;7.00;99.90;;;;;;5074161;28;20237;-49
2023/01/14 00:32:12;;;;;;;23.53;3.23;;;6.90;99.90;;;;;;5073919;28;20256;-51
2023/01/14 00:34:38;;;;;;;21.27;3.53;;;6.90;99.90;;;;;;5055689;28;20203;-51
2023/01/14 00:37:04;;;;;;;15.37;3.40;;;6.90;99.90;;;;;;5073941;28;20201;-50
2023/01/14 00:39:30;;;;;;;18.87;3.93;;;6.90;99.90;;;;;;5074017;28;20179;-51
2023/01/14 00:41:56;;;;;;;26.97;4.47;;;6.90;99.90;;;;;;5073776;28;20294;-51
2023/01/14 00:44:21;;;;;;;25.23;4.30;;;6.90;99.90;;;;;;5055780;28;20262;-52
2023/01/14 00:46:48;;;;;;;23.47;3.93;;;6.80;99.90;;;;;;5073666;28;20262;-52
2023/01/14 00:49:16;;;;;;;21.10;3.43;;;6.90;99.90;;;;;;5074250;28;20191;-44
2023/01/14 00:51:43;;;;;;;21.67;4.13;;;6.80;99.90;;;;;;5073672;28;20226;-44
2023/01/14 00:54:08;;;;;;;18.73;4.30;;;6.80;99.90;;;;;;5073835;28;20232;-45
2023/01/14 00:56:34;;;;;;;27.03;4.83;;;6.90;99.90;;;;;;5073671;28;20179;-43
2023/01/14 00:59:00;;;;;;;20.37;3.47;;;6.90;99.90;;;;;;5073758;28;20186;-44
2023/01/14 01:01:26;;;;;;;17.63;2.80;;;6.90;99.90;;;;;;5073444;28;20196;-43
2023/01/14 01:03:54;;;;;;;23.67;4.37;;;6.80;99.90;;;;;;5073642;28;20186;-43
2023/01/14 01:06:22;;;;;;;22.67;3.43;;;6.90;99.90;;;;;;5073587;28;20202;-44
2023/01/14 01:08:48;;;;;;;22.97;3.90;;;6.80;99.90;;;;;;5073540;28;20187;-43
2023/01/14 01:11:15;;;;;;;29.17;4.20;;;6.80;99.90;;;;;;5055296;28;20206;-44
2023/01/14 01:13:41;;;;;;;27.03;3.93;;;6.80;99.90;;;;;;5073194;28;20553;-45
2023/01/14 01:16:11;;;;;;;27.27;4.33;;;6.90;99.90;;;;;;5055186;28;20202;-42
2023/01/14 01:18:38;;;;;;;28.87;4.17;;;6.90;99.90;;;;;;5073376;28;20164;-44
2023/01/14 01:21:05;;;;;;;26.07;3.83;;;6.90;99.90;;;;;;5073144;28;20654;-45
2023/01/14 01:23:32;;;;;;;26.00;3.83;;;6.90;99.90;;;;;;5073536;28;20213;-45
2023/01/14 01:26:04;;;;;;;22.93;4.17;;;6.90;99.90;;;;;;5073523;28;20198;-44
2023/01/14 01:28:31;;;;;;;21.83;3.70;;;6.90;99.90;;;;;;5073416;28;20273;-43
2023/01/14 01:31:05;;;;;;;18.40;4.00;;;6.90;99.90;;;;;;5073282;28;20196;-43
2023/01/14 01:33:31;;;;;;;21.70;4.20;;;6.90;99.90;;;;;;5073193;28;20182;-44
2023/01/14 01:36:14;;;;;;;21.50;3.47;;;6.90;99.90;;;;;;5074934;28;20350;-46
2023/01/14 01:38:40;;;;;;;23.30;3.17;;;6.90;99.90;;;;;;5077440;28;20171;-43
2023/01/14 01:41:06;;;;;;;18.43;3.10;;;7.00;99.90;;;;;;5076954;28;20232;-46
2023/01/14 01:43:33;;;;;;;13.13;3.00;;;7.00;99.90;;;;;;5059160;28;20645;-44
2023/01/14 01:45:59;;;;;;;23.37;3.77;;;7.00;99.90;;;;;;5076973;28;20190;-45
2023/01/14 01:48:39;;;;;;;28.10;3.83;;;7.00;99.90;;;;;;5077316;28;20385;-44
2023/01/14 01:51:13;;;;;;;21.27;3.77;;;7.00;99.90;;;;;;5076659;28;20253;-49
2023/01/14 01:53:43;;;;;;;17.83;3.63;;;7.00;99.90;;;;;;5077150;28;20541;-50
2023/01/14 01:56:14;;;;;;;19.70;3.23;;;6.90;99.90;;;;;;5076991;28;20582;-50
2023/01/14 01:58:41;;;;;;;25.47;3.87;;;6.90;99.90;;;;;;5076809;28;20215;-50
2023/01/14 02:01:06;;;;;;;23.93;3.57;;;6.80;99.90;;;;;;5076859;28;20179;-49
2023/01/14 02:03:42;;;;;;;15.57;2.70;;;6.90;99.90;;;;;;5076918;28;20186;-50
2023/01/14 02:06:08;;;;;;;23.10;4.00;;;6.80;99.90;;;;;;5076816;28;20175;-50
2023/01/14 02:08:36;;;;;;;20.77;3.87;;;6.80;99.90;;;;;;5076818;28;20183;-49
2023/01/14 02:11:46;;;;;;;24.37;4.47;;;6.80;99.90;;;;;;5058953;28;20187;-51
2023/01/14 02:14:37;;;;;;;16.90;2.93;;;6.80;99.90;;;;;;5076095;28;20192;-52
2023/01/14 02:17:25;;;;;;;18.50;3.33;;;6.80;99.90;;;;;;5076722;28;20202;-50
2023/01/14 02:20:25;;;;;;;20.57;3.40;;;6.70;99.90;;;;;;5076687;28;20563;-50
2023/01/14 02:23:18;;;;;;;28.40;3.50;;;6.70;99.90;;;;;;5076134;28;20249;-51
2023/01/14 02:26:02;;;;;;;14.77;2.80;;;6.70;99.90;;;;;;5076172;28;20189;-49
2023/01/14 02:28:41;;;;;;;19.57;3.30;;;6.70;99.90;;;;;;5076230;28;20172;-48
2023/01/14 02:31:28;;;;;;;17.30;3.27;;;6.80;99.90;;;;;;5076350;28;20167;-49
2023/01/14 02:34:21;;;;;;;24.20;3.77;;;6.70;99.90;;;;;;5076437;28;20167;-50
2023/01/14 02:36:50;;;;;;;25.13;4.03;;;6.70;99.90;;;;;;5067687;28;20272;-51
2023/01/14 02:39:35;;;;;;;21.37;3.60;;;6.70;99.90;;;;;;5076262;28;20264;-51
2023/01/14 02:45:09;;;;;;;12.30;2.67;;;6.70;99.90;;;;;;5076155;28;20216;-51
2023/01/14 02:47:37;;;;;;;23.20;3.60;;;6.60;99.90;;;;;;5076063;28;20519;-50
2023/01/14 02:50:04;;;;;;;18.87;3.40;;;6.60;99.90;;;;;;5076075;28;20182;-51
2023/01/14 02:52:29;;;;;;;19.93;3.27;;;6.50;99.90;;;;;;5076197;28;20247;-50
2023/01/14 02:54:57;;;;;;;15.70;3.10;;;6.40;99.90;;;;;;5075813;28;20292;-51
2023/01/14 02:57:41;;;;;;;18.97;3.47;;;6.40;99.90;;;;;;5076190;28;20554;-50
2023/01/14 03:00:28;;;;;;;21.87;3.97;;;6.30;99.90;;;;;;5076347;28;20631;-50
2023/01/14 03:03:16;;;;;;;16.63;4.13;;;6.30;99.90;;;;;;5076464;28;20331;-50
2023/01/14 03:05:56;;;;;;;19.07;2.87;;;6.20;99.90;;;;;;5076090;28;20670;-50
2023/01/14 03:08:30;;;;;;;20.23;3.07;;;6.10;99.90;;;;;;5076266;28;20169;-50
2023/01/14 03:11:05;;;;;;;19.23;3.80;;;6.10;99.90;;;;;;5075915;28;20175;-49
2023/01/14 03:13:52;;;;;;;17.37;3.63;;;6.00;99.90;;;;;;5075982;28;20179;-50
2023/01/14 03:16:29;;;;;;;18.23;3.07;;;6.00;99.90;;;;;;5075459;28;20193;-50
2023/01/14 03:19:01;;;;;;;12.93;2.37;;;5.90;99.90;;;;;;5075021;28;20687;-49
2023/01/14 03:21:32;;;;;;;19.77;3.67;;;5.90;99.90;;;;;;5075489;28;20251;-51
2023/01/14 03:24:14;;;;;;;17.23;3.60;;;5.90;99.90;;;;;;5057449;28;20715;-49
2023/01/14 03:26:44;;;;;;;22.00;2.90;;;5.90;99.90;;;;;;5087034;28;20166;-49
2023/01/14 03:29:16;;;;;;;19.70;3.37;;;5.90;99.90;;;;;;5082369;28;20198;-51
2023/01/14 03:31:48;;;;;;;16.13;2.97;;;5.90;99.90;;;;;;5075228;28;20190;-50
2023/01/14 03:34:18;;;;;;;12.43;2.63;;;5.90;99.90;;;;;;5075150;28;20641;-51
2023/01/14 03:36:47;;;;;;;16.33;3.10;;;5.90;99.90;;;;;;5075122;28;20236;-50
2023/01/14 03:39:18;;;;;;;17.27;2.33;;;5.90;99.90;;;;;;5074863;28;20190;-50
2023/01/14 03:44:49;;;;;;;19.57;3.33;;;5.90;99.90;;;;;;5075018;28;20264;-50
2023/01/14 03:47:16;;;;;;;18.63;2.50;;;6.00;99.90;;;;;;5074920;28;20177;-50
2023/01/14 03:49:42;;;;;;;16.63;2.37;;;6.00;99.90;;;;;;5056869;28;20187;-49
2023/01/14 03:52:14;;;;;;;15.60;3.07;;;6.00;99.90;;;;;;5075229;28;20267;-50
2023/01/14 03:55:01;;;;;;;18.53;2.83;;;6.00;99.90;;;;;;5074704;28;20221;-50
2023/01/14 03:57:39;;;;;;;17.40;3.53;;;6.10;99.90;;;;;;5074824;28;20576;-49
2023/01/14 04:00:10;;;;;;;15.13;2.93;;;6.10;99.90;;;;;;5074240;28;20177;-49
2023/01/14 04:02:37;;;;;;;24.20;3.30;;;6.10;99.90;;;;;;5074289;28;20198;-50
2023/01/14 04:05:02;;;;;;;25.93;4.00;;;6.10;99.90;;;;;;5074541;28;20192;-49
2023/01/14 04:07:28;;;;;;;20.27;3.00;;;6.10;99.90;;;;;;5074128;28;20576;-50
2023/01/14 04:09:54;;;;;;;21.83;3.60;;;6.10;99.90;;;;;;5074563;28;20225;-49
2023/01/14 04:12:19;;;;;;;15.13;2.83;;;6.10;99.90;;;;;;5074153;28;20289;-50
2023/01/14 04:17:29;;;;;;;11.60;2.87;;;6.20;99.90;;;;;;5074714;28;20541;-50
2023/01/14 04:19:54;;;;;;;23.53;3.60;;;6.20;99.90;;;;;;5074052;28;20174;-49
2023/01/14 04:22:20;;;;;;;19.00;3.50;;;6.20;99.90;;;;;;5073966;28;20198;-50
2023/01/14 04:24:45;;;;;;;30.67;3.60;;;6.20;99.90;;;;;;5073916;28;20187;-48
2023/01/14 04:27:11;;;;;;;19.20;3.20;;;6.20;99.90;;;;;;5073969;28;20704;-50
2023/01/14 04:29:36;;;;;;;16.77;3.27;;;6.20;99.90;;;;;;5074486;28;20532;-51
2023/01/14 04:32:02;;;;;;;30.37;4.03;;;6.20;99.90;;;;;;5073844;28;20206;-52
2023/01/14 04:34:28;;;;;;;25.03;4.33;;;6.20;99.90;;;;;;5073760;28;20271;-49
2023/01/14 04:36:53;;;;;;;29.97;2.97;;;6.20;99.90;;;;;;5073717;28;20171;-50
2023/01/14 04:39:19;;;;;;;21.87;3.70;;;6.20;99.90;;;;;;5073715;28;20178;-50
2023/01/14 04:44:29;;;;;;;18.40;3.43;;;6.20;99.90;;;;;;5074045;28;20175;-49
2023/01/14 04:46:54;;;;;;;22.67;3.37;;;6.20;99.90;;;;;;5055688;28;20179;-50
2023/01/14 04:49:20;;;;;;;21.63;3.53;;;6.20;99.90;;;;;;5073607;28;20666;-49
2023/01/14 04:51:45;;;;;;;16.07;2.50;;;6.10;99.90;;;;;;5073373;28;20261;-50
2023/01/14 04:54:11;;;;;;;17.23;3.23;;;6.10;99.90;;;;;;5073504;28;20182;-48
2023/01/14 04:56:36;;;;;;;14.10;2.50;;;6.10;99.90;;;;;;5073643;28;20704;-49
2023/01/14 04:59:03;;;;;;;16.50;2.80;;;6.00;99.90;;;;;;5073455;28;20638;-51
2023/01/14 05:01:30;;;;;;;16.00;2.77;;;6.00;99.90;;;;;;5073528;28;20280;-49
2023/01/14 05:03:58;;;;;;;19.63;3.30;;;5.90;99.90;;;;;;5073964;28;20170;-51
2023/01/14 05:06:28;;;;;;;16.20;2.83;;;5.90;99.90;;;;;;5073544;28;20212;-51
2023/01/14 05:08:54;;;;;;;17.80;3.13;;;5.90;99.90;;;;;;5073896;28;20224;-51
2023/01/14 05:11:21;;;;;;;22.47;3.80;;;5.90;99.90;;;;;;5073820;28;20666;-50
2023/01/14 05:13:46;;;;;;;17.13;3.47;;;5.80;99.90;;;;;;5073263;28;20187;-51
2023/01/14 05:16:12;;;;;;;11.43;2.63;;;5.80;99.90;;;;;;5073197;28;20680;-50
2023/01/14 05:18:37;;;;;;;17.13;3.00;;;5.80;99.90;;;;;;5073740;28;20531;-51
2023/01/14 05:21:04;;;;;;;20.13;2.53;;;5.80;99.90;;;;;;5074040;28;20185;-46
2023/01/14 05:23:30;;;;;;;13.87;2.97;;;5.80;99.90;;;;;;5073394;28;20724;-44
2023/01/14 05:25:55;;;;;;;14.60;2.57;;;5.80;99.90;;;;;;5073341;28;20189;-45
2023/01/14 05:28:21;;;;;;;18.27;2.70;;;5.70;99.90;;;;;;5073201;28;20186;-44
2023/01/14 05:30:47;;;;;;;9.70;2.23;;;5.70;99.90;;;;;;5073244;28;20185;-45
2023/01/14 05:33:13;;;;;;;19.53;3.27;;;5.70;99.90;;;;;;5073096;28;20292;-47
2023/01/14 05:35:38;;;;;;;15.53;2.30;;;5.70;99.90;;;;;;5073289;28;20202;-46
2023/01/14 05:38:06;;;;;;;20.10;2.67;;;5.70;99.90;;;;;;5073124;28;20236;-45
2023/01/14 05:40:32;;;;;;;17.83;3.23;;;5.80;99.90;;;;;;5073102;28;20186;-44
2023/01/14 05:45:49;;;;;;;15.60;3.03;;;5.80;99.90;;;;;;5073397;28;20181;-45
2023/01/14 05:48:21;;;;;;;22.33;3.40;;;5.80;99.90;;;;;;5073017;28;20178;-46
2023/01/14 05:50:52;;;;;;;15.00;2.37;;;5.80;99.90;;;;;;5072908;28;20198;-45
2023/01/14 05:53:19;;;;;;;18.57;3.23;;;5.80;99.90;;;;;;5072998;28;20270;-46
2023/01/14 05:55:45;;;;;;;19.83;2.83;;;5.80;99.90;;;;;;5073135;28;20202;-46
2023/01/14 05:58:12;;;;;;;9.43;2.20;;;5.80;99.90;;;;;;5072931;28;20190;-45
2023/01/14 06:06:23;;;;;;;15.90;2.23;;;5.90;99.90;;;;;;5073486;28;20207;-45
2023/01/14 06:08:53;;;;;;;20.43;3.00;;;5.90;99.90;;;;;;5072878;28;20171;-46
2023/01/14 06:11:21;;;;;;;13.07;2.90;;;6.00;99.90;;;;;;5073711;28;20199;-45
2023/01/14 06:13:49;;;;;;;14.63;2.70;;;5.90;99.90;;;;;;5072844;28;20221;-44
2023/01/14 06:16:15;;;;;;;13.33;2.30;;;6.00;99.90;;;;;;5054904;28;20628;-47
2023/01/14 06:18:44;;;;;;;20.23;2.80;;;6.00;99.90;;;;;;5073285;28;20692;-46
2023/01/14 06:21:12;;;;;;;12.57;1.90;;;6.00;99.90;;;;;;5073825;28;20685;-44
2023/01/14 06:23:38;;;;;;;14.70;2.77;;;6.00;99.90;;;;;;5058715;28;20652;-45
2023/01/14 06:26:07;;;;;;;14.93;2.60;;;6.10;99.90;;;;;;5058515;28;20640;-46
2023/01/14 06:28:33;;;;;;;9.87;2.50;;;6.10;99.90;;;;;;5059022;28;20644;-46
2023/01/14 06:30:59;;;;;;;14.60;2.27;;;6.10;99.90;;;;;;5081725;28;20206;-44
2023/01/14 06:33:24;;;;;;;14.67;2.40;;;6.10;99.90;;;;;;5090017;28;20211;-46
2023/01/14 06:35:50;;;;;;;21.27;2.93;;;6.20;99.90;;;;;;5081808;28;20678;-45
2023/01/14 06:38:15;;;;;;;13.17;2.90;;;6.20;99.90;;;;;;5058476;28;20186;-46
2023/01/14 06:40:42;;;;;;;11.07;2.20;;;6.20;99.90;;;;;;5076057;28;20182;-44
2023/01/14 06:43:08;;;;;;;19.87;3.03;;;6.20;99.90;;;;;;5075972;28;20221;-44
2023/01/14 06:45:34;;;;;;;15.37;2.67;;;6.20;99.90;;;;;;5076291;28;20180;-45
2023/01/14 06:48:00;;;;;;;14.27;2.07;;;6.20;99.90;;;;;;5075937;28;20179;-46
2023/01/14 06:50:26;;;;;;;18.43;2.60;;;6.20;99.90;;;;;;5076057;28;20210;-44
2023/01/14 06:52:54;;;;;;;16.77;3.47;;;6.20;99.90;;;;;;5075731;28;20570;-46
2023/01/14 06:55:20;;;;;;;13.00;3.13;;;6.20;99.90;;;;;;5075753;28;20723;-46
2023/01/14 06:57:46;;;;;;;13.63;2.60;;;6.20;99.90;;;;;;5076370;28;20167;-45
2023/01/14 07:00:13;;;;;;;10.73;2.53;;;6.20;99.90;;;;;;5057675;28;20583;-46
2023/01/14 07:02:39;;;;;;;13.93;2.43;;;6.20;99.90;;;;;;5075787;28;20195;-44
2023/01/14 07:05:06;;;;;;;12.90;2.47;;;6.30;99.90;;;;;;5076033;28;20179;-46
2023/01/14 07:07:31;;;;;;;13.10;2.47;;;6.30;99.90;;;;;;5075821;28;20191;-44
2023/01/14 07:09:57;;;;;;;11.70;2.13;;;6.20;99.90;;;;;;5075531;28;20201;-44
2023/01/14 07:12:22;;;;;;;13.13;2.13;;;6.30;99.90;;;;;;5075415;28;20203;-44
2023/01/14 07:14:48;;;;;;;16.13;2.13;;;6.20;99.90;;;;;;5075818;28;20211;-45
2023/01/14 07:17:14;;;;;;;9.77;1.60;;;6.30;99.90;;;;;;5075436;28;20182;-45
2023/01/14 07:19:39;;;;;;;12.03;2.33;;;6.30;99.90;;;;;;5075714;28;20186;-45
2023/01/14 07:22:05;;;;;;;13.10;2.30;;;6.30;99.90;;;;;;5075291;28;20205;-45
2023/01/14 07:24:31;;;;;;;7.27;2.27;;;6.30;99.90;;;;;;5075738;28;20644;-44
2023/01/14 07:26:56;;;;;;;9.70;1.90;;;6.40;99.90;;;;;;5057864;28;20181;-44
2023/01/14 07:29:22;;;;;;;6.03;1.67;;;6.40;99.90;;;;;;5076459;28;20225;-44
2023/01/14 07:31:47;;;;;;;9.93;2.37;;;6.50;99.90;;;;;;5076090;28;20678;-44
2023/01/14 07:34:13;;;;;;;10.13;1.70;;;6.50;99.90;;;;;;5074531;28;20182;-44
2023/01/14 07:36:39;;;;;;;9.07;1.27;;;6.50;99.90;;;;;;5075110;28;20195;-48
2023/01/14 07:39:04;;;;;;;8.23;1.90;;;6.60;99.90;;;;;;5075128;28;20179;-49
2023/01/14 07:41:30;;;;;;;5.03;1.37;;;6.60;99.90;;;;;;5075175;28;20234;-49
2023/01/14 07:43:55;;;;;;;4.10;1.07;;;6.70;99.90;;;;;;5074878;28;20232;-48
2023/01/14 07:46:21;;;;;;;7.73;1.53;;;6.70;99.90;;;;;;5074688;28;20183;-49
2023/01/14 07:48:46;;;;;;;5.03;1.20;;;6.70;99.90;;;;;;5075514;28;20258;-49
2023/01/14 07:51:15;;;;;;;5.40;0.90;;;6.80;99.90;;;;;;5074463;28;20198;-49
2023/01/14 07:53:41;;;;;;;4.90;1.30;;;6.80;99.90;;;;;;5056704;28;20190;-49
2023/01/14 07:56:07;;;;;;;4.23;1.13;;;6.80;99.90;;;;;;5056674;28;20217;-49
2023/01/14 07:58:33;;;;;;;3.83;1.47;;;6.90;99.90;;;;;;5074723;28;20270;-49
2023/01/14 08:01:05;;;;;;;3.03;0.70;;;6.90;99.90;;;;;;5074723;28;20184;-49
2023/01/14 08:03:31;;;;;;;1.83;0.70;;;7.00;99.90;;;;;;5074321;28;20635;-43
2023/01/14 08:06:04;;;;;;;2.80;1.00;;;7.00;99.90;;;;;;5074324;28;20236;-43
2023/01/14 08:08:30;;;;;;;2.40;0.90;;;7.00;99.90;;;;;;5074458;28;20253;-43
2023/01/14 08:11:03;;;;;;;1.57;0.80;;;7.10;99.90;;;;;;5074715;28;20540;-41
2023/01/14 08:13:30;;;;;;;4.53;0.70;;;7.10;99.90;;;;;;5074248;28;20243;-43
2023/01/14 08:16:00;;;;;;;1.43;0.73;;;7.10;99.90;;;;;;5073992;28;20209;-44
2023/01/14 08:18:26;;;;;;;2.07;0.50;;;7.10;99.90;;;;;;5056220;28;20660;-44
2023/01/14 08:21:00;;;;;;;1.17;0.73;;;7.20;99.90;;;;;;5056104;28;20184;-43
2023/01/14 08:23:26;;;;;;;2.37;0.63;;;7.20;99.90;;;;;;5073946;28;20245;-45
2023/01/14 08:25:51;;;;;;;3.47;0.93;;;7.30;99.90;;;;;;5074432;28;20182;-45
2023/01/14 08:28:17;;;;;;;0.80;0.50;;;7.30;99.90;;;;;;5074189;28;20651;-45
2023/01/14 08:30:43;;;;;;;1.23;0.67;;;7.30;99.90;;;;;;5073889;28;20540;-45
2023/01/14 08:33:08;;;;;;;2.40;0.60;;;7.40;99.90;;;;;;5055894;28;20225;-44
2023/01/14 08:35:39;;;;;;;2.43;0.87;;;7.40;99.90;;;;;;5055887;28;20572;-43
2023/01/14 08:38:05;;;;;;;1.23;0.50;;;7.40;99.90;;;;;;5073793;28;20209;-43
2023/01/14 08:40:31;;;;;;;3.83;0.87;;;7.50;99.90;;;;;;5074016;28;20186;-44
2023/01/14 08:42:56;;;;;;;1.53;0.50;;;7.50;99.90;;;;;;5073870;28;20290;-44
2023/01/14 08:45:22;;;;;;;2.97;0.77;;;7.50;99.90;;;;;;5073436;28;20176;-44
2023/01/14 08:47:48;;;;;;;1.13;0.57;;;7.60;99.90;;;;;;5073657;28;20269;-42
2023/01/14 08:50:13;;;;;;;2.20;0.70;;;7.60;99.90;;;;;;5056093;28;20195;-44
2023/01/14 08:52:39;;;;;;;3.07;0.60;;;7.70;99.90;;;;;;5073551;28;20744;-44
2023/01/14 08:55:05;;;;;;;1.63;0.47;;;7.70;99.90;;;;;;5073452;28;20209;-44
2023/01/14 08:57:30;;;;;;;3.70;0.90;;;7.60;99.90;;;;;;5073783;28;20240;-43
2023/01/14 08:59:56;;;;;;;3.13;0.80;;;7.70;99.90;;;;;;5073813;28;20187;-43
2023/01/14 09:02:21;;;;;;;4.30;0.70;;;7.70;99.90;;;;;;5073737;28;20265;-43
2023/01/14 09:04:47;;;;;;;1.17;0.50;;;7.70;99.90;;;;;;5073512;28;20183;-45
2023/01/14 09:18:08;;;;;;;4.00;1.00;;;7.90;99.90;;;;;;5073318;28;20233;-43
2023/01/14 09:20:38;;;;;;;7.10;0.90;;;7.90;99.90;;;;;;5073266;28;20184;-46
2023/01/14 09:23:06;;;;;;;4.40;0.87;;;8.00;99.90;;;;;;5073259;28;20226;-43
2023/01/14 09:25:31;;;;;;;4.83;0.97;;;8.00;99.90;;;;;;5073523;28;20604;-44
2023/01/14 09:27:57;;;;;;;4.20;1.00;;;8.00;99.90;;;;;;5055373;28;20183;-44
2023/01/14 09:30:23;;;;;;;3.73;0.80;;;8.10;99.90;;;;;;5073467;28;20191;-45
2023/01/14 09:32:48;;;;;;;2.87;0.93;;;8.10;99.90;;;;;;5073385;28;20204;-46
2023/01/14 09:35:14;;;;;;;7.27;1.00;;;8.10;99.90;;;;;;5073202;28;20203;-44
2023/01/14 09:37:40;;;;;;;2.37;0.67;;;8.20;99.90;;;;;;5073550;28;20180;-47
2023/01/14 09:40:06;;;;;;;3.37;0.90;;;8.20;99.90;;;;;;5074069;28;20566;-45
2023/01/14 09:42:35;;;;;;;4.17;0.70;;;8.30;99.90;;;;;;5077350;28;20626;-44
2023/01/14 09:45:13;;;;;;;3.83;1.10;;;8.30;99.90;;;;;;5078765;28;20572;-44
2023/01/14 09:47:39;;;;;;;3.13;0.63;;;8.40;99.90;;;;;;5074268;28;20260;-44
2023/01/14 09:50:07;;;;;;;3.13;1.00;;;8.40;99.90;;;;;;5055049;28;20203;-43
2023/01/14 09:53:02;;;;;;;4.43;0.70;;;8.50;99.90;;;;;;5073310;28;20250;-44
2023/01/14 09:55:31;;;;;;;3.77;0.80;;;8.50;99.90;;;;;;5073752;28;20193;-43
2023/01/14 09:58:04;;;;;;;8.90;1.00;;;8.50;99.90;;;;;;5058528;28;20271;-44
2023/01/14 10:00:56;;;;;;;4.70;1.17;;;8.60;99.90;;;;;;5077085;28;20165;-43
2023/01/14 10:03:49;;;;;;;3.87;1.20;;;8.60;99.90;;;;;;5058793;28;20207;-41
2023/01/14 10:06:17;;;;;;;8.63;1.20;;;8.60;99.90;;;;;;5076864;28;20207;-43
2023/01/14 10:08:51;;;;;;;2.07;0.73;;;8.60;99.90;;;;;;5076542;28;20211;-45
2023/01/14 10:11:18;;;;;;;4.53;0.70;;;8.60;99.90;;;;;;5077125;28;20555;-43
2023/01/14 10:14:02;;;;;;;2.63;0.87;;;8.60;99.90;;;;;;5077069;28;20189;-42
2023/01/14 10:16:34;;;;;;;3.67;0.70;;;8.70;99.90;;;;;;5076417;28;20207;-45
2023/01/14 10:19:14;;;;;;;2.23;0.73;;;8.70;99.90;;;;;;5076747;28;20171;-44
2023/01/14 10:21:42;;;;;;;2.40;1.00;;;8.70;99.90;;;;;;5058346;28;20203;-43
2023/01/14 10:24:13;;;;;;;1.50;0.70;;;8.70;99.90;;;;;;5076351;28;20176;-44
2023/01/14 10:26:39;;;;;;;10.00;1.30;;;8.60;99.90;;;;;;5076557;28;20671;-44
2023/01/14 10:29:28;;;;;;;1.23;0.43;;;8.70;99.90;;;;;;5076282;28;20542;-44
2023/01/14 10:31:57;;;;;;;5.17;0.80;;;8.60;99.90;;;;;;5076194;28;20193;-43
2023/01/14 10:34:38;;;;;;;4.73;1.10;;;8.60;99.90;;;;;;5058252;28;20567;-42
2023/01/14 10:37:06;;;;;;;1.27;0.60;;;8.60;99.90;;;;;;5076284;28;20184;-44
2023/01/14 10:39:32;;;;;;;0.90;0.50;;;8.70;99.90;;;;;;5076331;28;20186;-44
2023/01/14 10:42:00;;;;;;;3.90;0.60;;;8.70;99.90;;;;;;5058346;28;20206;-44
2023/01/14 10:44:38;;;;;;;4.83;1.07;;;8.70;99.90;;;;;;5076286;28;20181;-43
2023/01/14 10:47:08;;;;;;;2.23;0.57;;;8.70;99.90;;;;;;5058010;28;20191;-46
2023/01/14 10:49:42;;;;;;;2.63;0.80;;;8.70;99.90;;;;;;5075910;28;20169;-43
2023/01/14 10:52:32;;;;;;;2.67;0.70;;;8.70;99.90;;;;;;5057802;28;20266;-44
2023/01/14 10:55:16;;;;;;;2.40;0.80;;;8.70;99.90;;;;;;5075952;28;20323;-46
2023/01/14 10:58:18;;;;;;;2.23;0.63;;;8.70;99.90;;;;;;5075902;28;20180;-44
2023/01/14 11:00:50;;;;;;;1.50;0.60;;;8.70;99.90;;;;;;5075966;28;20168;-44
2023/01/14 11:03:24;;;;;;;3.60;0.80;;;8.70;99.90;;;;;;5075586;28;20242;-44
2023/01/14 11:05:57;;;;;;;3.80;0.53;;;8.70;99.90;;;;;;5076272;28;20172;-43
2023/01/14 11:08:33;;;;;;;3.00;0.50;;;8.80;99.90;;;;;;5075392;28;20166;-43
2023/01/14 11:11:05;;;;;;;1.03;0.53;;;8.70;99.90;;;;;;5075802;28;20173;-44
2023/01/14 11:13:44;;;;;;;2.43;0.70;;;8.80;99.90;;;;;;5075733;28;20191;-45
2023/01/14 11:16:21;;;;;;;2.77;0.73;;;8.80;99.90;;;;;;5041176;28;20550;-44
2023/01/14 11:18:57;;;;;;;0.83;0.30;;;8.80;99.90;;;;;;5075287;28;20649;-42
2023/01/14 11:21:29;;;;;;;2.53;0.60;;;8.80;99.90;;;;;;5075530;28;20250;-44
2023/01/14 11:24:08;;;;;;;3.00;0.50;;;8.80;99.90;;;;;;5057202;28;20665;-43
2023/01/14 11:26:37;;;;;;;2.83;0.50;;;8.80;99.90;;;;;;5075507;28;20196;-42
2023/01/14 11:29:25;;;;;;;0.37;0.30;;;8.80;99.90;;;;;;5075384;28;20184;-42
2023/01/14 11:32:13;;;;;;;3.73;0.40;;;8.80;99.90;;;;;;5075069;28;20210;-43
2023/01/14 11:34:57;;;;;;;0.40;0.40;;;8.90;99.90;;;;;;5074999;28;20165;-44
2023/01/14 11:37:34;;;;;;;1.87;0.70;;;8.90;99.90;;;;;;5075100;28;20160;-43
2023/01/14 11:40:01;;;;;;;0.10;0.10;;;8.90;99.90;;;;;;5074915;28;20248;-44
2023/01/14 11:42:26;;;;;;;0.77;0.30;;;8.90;99.90;;;;;;5056956;28;20263;-45
2023/01/14 11:45:17;;;;;;;1.90;0.50;;;8.90;99.90;;;;;;5074922;28;20166;-46
2023/01/14 11:47:56;;;;;;;2.83;0.40;;;8.90;99.90;;;;;;5064721;28;20202;-43
2023/01/14 11:50:21;;;;;;;0.47;0.30;;;9.00;99.90;;;;;;5074586;28;20274;-44
2023/01/14 11:53:14;;;;;;;2.37;0.47;;;9.00;99.90;;;;;;5074627;28;20277;-45
2023/01/14 11:55:41;;;;;;;0.23;0.23;;;9.00;99.90;;;;;;5056597;28;20200;-45
2023/01/14 11:58:19;;;;;;;0.20;0.20;;;9.00;99.90;;;;;;5074648;28;20538;-44
2023/01/14 12:00:55;;;;;;;0.43;0.37;;;9.10;99.90;;;;;;5074570;28;20180;-42
2023/01/14 12:03:32;;;;;;;1.00;0.40;;;9.10;99.90;;;;;;5074513;28;20200;-45
2023/01/14 12:05:59;;;;;;;1.07;0.40;;;9.10;99.90;;;;;;5057122;28;20199;-42
2023/01/14 12:08:29;;;;;;;0.97;0.40;;;9.10;99.90;;;;;;5056623;28;20191;-50
2023/01/14 12:10:59;;;;;;;0.63;0.20;;;9.10;99.90;;;;;;5074815;28;20487;-50
2023/01/14 12:16:51;;;;;;;0.53;0.37;;;9.10;99.90;;;;;;5074431;28;20200;-51
2023/01/14 12:19:26;;;;;;;0.63;0.30;;;9.20;99.90;;;;;;5073764;28;20171;-50
2023/01/14 12:22:22;;;;;;;1.00;0.30;;;9.20;99.90;;;;;;5056606;28;20192;-49
2023/01/14 12:25:23;;;;;;;0.30;0.20;;;9.20;99.90;;;;;;5074240;28;20213;-49
2023/01/14 12:28:13;;;;;;;0.30;0.30;;;9.20;99.90;;;;;;5074223;28;20176;-50
2023/01/14 12:31:05;;;;;;;1.70;0.40;;;9.20;99.90;;;;;;5074434;28;20166;-49
2023/01/14 12:33:49;;;;;;;0.43;0.30;;;9.20;99.90;;;;;;5074567;28;20170;-50
2023/01/14 12:36:25;;;;;;;1.50;0.40;;;9.20;99.90;;;;;;5074232;28;20197;-50
2023/01/14 12:45:49;;;;;;;0.20;0.20;;;9.30;99.90;;;;;;5059696;28;20654;-50
2023/01/14 12:48:24;;;;;;;0.37;0.23;;;9.40;99.90;;;;;;5074208;28;20254;-49
2023/01/14 12:51:13;;;;;;;0.50;0.40;;;9.50;99.90;;;;;;5073775;28;20672;-50
2023/01/14 12:53:54;;;;;;;0.20;0.20;;;9.50;99.90;;;;;;5073877;28;20181;-51
2023/01/14 12:56:30;;;;;;;0.60;0.30;;;9.50;99.90;;;;;;5073703;28;20221;-50
2023/01/14 12:58:59;;;;;;;0.30;0.30;;;9.50;99.90;;;;;;5073714;28;20187;-51
2023/01/14 13:01:30;;;;;;;0.87;0.40;;;9.50;99.90;;;;;;5077146;28;20196;-50
2023/01/14 13:04:05;;;;;;;0.43;0.30;;;9.60;99.90;;;;;;5077772;28;20162;-48
2023/01/14 13:06:37;;;;;;;0.30;0.30;;;9.60;99.90;;;;;;5073782;28;20194;-50
2023/01/14 13:09:06;;;;;;;0.73;0.27;;;9.70;99.90;;;;;;5073704;28;20204;-50
2023/01/14 13:11:47;;;;;;;0.80;0.30;;;9.70;99.90;;;;;;5073248;28;20662;-51
2023/01/14 13:14:33;;;;;;;0.30;0.30;;;9.80;99.90;;;;;;5073281;28;20238;-50
2023/01/14 13:17:04;;;;;;;1.70;0.30;;;9.70;99.90;;;;;;5073336;28;20249;-49
2023/01/14 13:19:48;;;;;;;0.30;0.30;;;9.80;99.90;;;;;;5073561;28;20326;-49
2023/01/14 13:22:50;;;;;;;1.37;0.30;;;9.80;99.90;;;;;;5073097;28;20204;-48
2023/01/14 13:25:40;;;;;;;0.30;0.30;;;9.80;99.90;;;;;;5073754;28;20171;-51
2023/01/14 13:28:12;;;;;;;0.40;0.40;;;9.80;99.90;;;;;;5073756;28;20161;-49
2023/01/14 13:30:59;;;;;;;0.40;0.30;;;9.90;99.90;;;;;;5073513;28;20175;-50
2023/01/14 13:33:32;;;;;;;0.47;0.30;;;9.90;99.90;;;;;;5077189;28;20193;-49
2023/01/14 13:36:09;;;;;;;0.50;0.30;;;9.80;99.90;;;;;;5077465;28;20212;-51
2023/01/14 13:38:39;;;;;;;0.20;0.20;;;9.90;99.90;;;;;;5077189;28;20180;-49
2023/01/14 13:41:08;;;;;;;0.40;0.30;;;9.90;99.90;;;;;;5077397;28;20213;-50
2023/01/14 13:43:48;;;;;;;0.20;0.20;;;9.90;99.90;;;;;;5077128;28;20233;-50
2023/01/14 13:46:31;;;;;;;0.30;0.27;;;10.00;99.90;;;;;;5077089;28;20167;-51
2023/01/14 13:49:00;;;;;;;0.53;0.30;;;10.00;99.90;;;;;;5077360;28;20168;-49
2023/01/14 13:51:46;;;;;;;0.77;0.30;;;10.00;99.90;;;;;;5076977;28;20299;-50